Airfield :
LOGIN :

Register | Disclaimer

   EN    FR    IT 

 










Legend :    VFR   Marginal VFR   IFR   Intensive IFR   Very Intensive IFR
Visi :
Ceiling :
>= 8 km
>= 3000ft
5 to 8 km
1000 to 3000 ft
1500m to 5 km
500 to 1000 ft
800 to 1500m
200 to 500 ft
< 800m
< 200 ft
Symbols :   Thunderstorms  Fog  Heavy snow  Heavy precipitations  Wind > 20 kt
SIGMETs :     Misc.  Thunderstorms  Icing  Turbulence  Mountain Waves  Volcanic Ashes







- Airport Elevation : 1249 ft


ETSN - Neuburg AB

CURRENT METAR :
  • 210020Z 27002KT 2700 -SN BR FEW003 BKN005 00/00 Q0998 BLACKYLO

EXPIRED METARs :
  • 202336Z 00000KT 2000 -SN BR FEW002 OVC006 00/00 Q0998 RESN BLACKYLO
  • 202320Z 00000KT 1500 SN BR FEW002 OVC006 00/M00 Q0998 BLACKAMB
  • 202250Z 00000KT 2300 -SN BR FEW002 OVC006 00/M00 Q0998 BLACKYLO

TAF TAF ETSN
Valid from the 21 at 00:00 until the 21 at 09:00 UTC


202300Z 2100/2109 VRB03KT 3000 -SN BKN005 OVC020
TEMPO 2100/2103 15005KT 1000 SN BKN002 OVC010
BECMG 2103/2105 26007KT 6000 NSW SCT007 BKN012
TEMPO 2103/2109 28010KT 3000 -SN BKN005 BKN010 BY ETGL
No reported NOTAMs for that airfield.
1 SIGMET reported for the München FIR (EDMM) :
 
Severe turbulence
EDMM SIGMET 2 VALID 202116/210100 EDZM
EDMM MUNCHEN FIR SEV TURB FCST W OF E01015 FL200/245 MOV NE 15KT NC=



MET'MAP, your aeronautical weather chart ! - Copyright ORBIFLY December 2007 - Disclaimer

ORBIFLY MET'MAP TEAM :

Programming & Development : Alexandra Zaïnal
Concept & Development : Baudouin d'Aumeries
Co-Development & Prog : Marc-Olivier Méhu
Technical & hardware support : Manuel Goepfert

Contact : metmap@orbifly.com




SOURCES & CREDITS :

   NOAA